• Join FlightAware (Why Join?)
  • Login
  • US Flag 
10:26PM EDT


 

Airport Tracker/Info


-or-


 

Live Flight TrackerFlight Track Log ✈ AAL1071 ✈ 19-Jun-2013 ✈ KMIA - MDPC / PUJ

Flight Track Log - Related Links

Times and Time Zones

All times are in EDT time to prevent confusion due to time zone crossing. See the AAL1071 flight status page for this flight to view local times or setup timezone preferences in your user account.

Time Position Orientation Groundspeed Altitude Reporting Facility
EDT Latitude Longitude Course Direction KTS MPH feet Rate Location/Type
09:53AM 25.6852 -79.9167 104° East  Level FlightAware Approximate
09:54AM 25.6564 -79.7923 105° East  Level FlightAware Approximate
09:55AM 25.6333 -79.6673 90° East  Level FlightAware Approximate
09:56AM 25.6094 -79.5421 104° East  Level FlightAware Approximate
09:57AM 25.5796 -79.4181 105° East  Level FlightAware Approximate
09:58AM 25.5500 -79.2942 90° East  Level FlightAware Approximate
09:59AM 25.5185 -79.1721 110° East  Level FlightAware Approximate
10:00AM 25.4881 -79.0483 104° East  Level FlightAware Approximate
10:01AM 25.4594 -78.9241 104° East  Level FlightAware Approximate
10:02AM 25.4331 -78.7992 105° East  Level FlightAware Approximate
10:03AM 25.4023 -78.6757 105° East  Level FlightAware Approximate
10:04AM 25.3833 -78.5499 105° East  Level FlightAware Approximate
10:05AM 25.3542 -78.4258 105° East  Level FlightAware Approximate
10:06AM 25.3250 -78.3019 105° East  Level FlightAware Approximate
10:07AM 25.2975 -78.1776 115° Southeast  Level FlightAware Approximate
10:08AM 25.2480 -78.0619 115° Southeast  Level FlightAware Approximate
10:09AM 25.1986 -77.9461 112° Southeast  Level FlightAware Approximate
10:10AM 25.1551 -77.8264 112° Southeast  Level FlightAware Approximate
10:11AM 25.1097 -77.7075 114° Southeast  Level FlightAware Approximate
10:12AM 25.0680 -77.5871 110° East  Level FlightAware Approximate
10:13AM 25.0276 -77.4661 110° East  Level FlightAware Approximate
10:14AM 24.9670 -77.3571 126° Southeast  Level FlightAware Approximate
10:15AM 24.8988 -77.2525 126° Southeast  Level FlightAware Approximate
10:16AM 24.8305 -77.1481 126° Southeast  Level FlightAware Approximate
10:17AM 24.7621 -77.0438 126° Southeast  Level FlightAware Approximate
10:18AM 24.6961 -76.9378 123° Southeast  Level FlightAware Approximate
10:19AM 24.6315 -76.8307 126° Southeast  Level FlightAware Approximate
10:20AM 24.5620 -76.7274 126° Southeast  Level FlightAware Approximate
10:21AM 24.4925 -76.6243 127° Southeast  Level FlightAware Approximate
10:22AM 24.4228 -76.5213 127° Southeast  Level FlightAware Approximate
10:23AM 24.3531 -76.4184 127° Southeast  Level FlightAware Approximate
10:24AM 24.2833 -76.3157 127° Southeast  Level FlightAware Approximate
10:25AM 24.2134 -76.2131 127° Southeast  Level FlightAware Approximate
10:26AM 24.1434 -76.1106 127° Southeast  Level FlightAware Approximate
10:27AM 24.0733 -76.0082 127° Southeast  Level FlightAware Approximate
10:28AM 24.0038 -75.9055 126° Southeast  Level FlightAware Approximate
10:29AM 23.9351 -75.8021 126° Southeast  Level FlightAware Approximate
10:30AM 23.8664 -75.6988 126° Southeast  Level FlightAware Approximate
10:31AM 23.7976 -75.5957 126° Southeast  Level FlightAware Approximate
10:32AM 23.7287 -75.4926 126° Southeast  Level FlightAware Approximate
10:33AM 23.6598 -75.3896 126° Southeast  Level FlightAware Approximate
10:34AM 23.5911 -75.2865 126° Southeast  Level FlightAware Approximate
10:35AM 23.5307 -75.1778 119° Southeast  Level FlightAware Approximate
10:36AM 23.4748 -75.0659 119° Southeast  Level FlightAware Approximate
10:37AM 23.4189 -74.9542 119° Southeast  Level FlightAware Approximate
10:38AM 23.3630 -74.8424 118° Southeast  Level FlightAware Approximate
10:39AM 23.3073 -74.7307 118° Southeast  Level FlightAware Approximate
10:40AM 23.2515 -74.6190 119° Southeast  Level FlightAware Approximate
10:41AM 23.1956 -74.5074 119° Southeast  Level FlightAware Approximate
10:42AM 23.1396 -74.3959 119° Southeast  Level FlightAware Approximate
10:43AM 23.0825 -74.2851 119° Southeast  Level FlightAware Approximate
10:44AM 23.0252 -74.1745 119° Southeast  Level FlightAware Approximate
10:45AM 22.9678 -74.0640 119° Southeast  Level FlightAware Approximate
10:46AM 22.9104 -73.9536 119° Southeast  Level FlightAware Approximate
10:47AM 22.8528 -73.8432 119° Southeast  Level FlightAware Approximate
10:48AM 22.7952 -73.7330 120° Southeast  Level FlightAware Approximate
10:49AM 22.7375 -73.6229 120° Southeast  Level FlightAware Approximate
10:50AM 22.6797 -73.5129 120° Southeast  Level FlightAware Approximate
10:51AM 22.6219 -73.4029 120° Southeast  Level FlightAware Approximate
10:52AM 22.5640 -73.2931 120° Southeast  Level FlightAware Approximate
10:53AM 22.5060 -73.1833 120° Southeast  Level FlightAware Approximate
10:54AM 22.4479 -73.0736 120° Southeast  Level FlightAware Approximate
10:55AM 22.3899 -72.9640 120° Southeast  Level FlightAware Approximate
10:56AM 22.3322 -72.8542 120° Southeast  Level FlightAware Approximate
10:57AM 22.2744 -72.7445 120° Southeast  Level FlightAware Approximate
10:58AM 22.2173 -72.6345 118° Southeast  Level FlightAware Approximate
10:59AM 22.1618 -72.5235 118° Southeast  Level FlightAware Approximate
11:00AM 22.1063 -72.4125 118° Southeast  Level FlightAware Approximate
11:01AM 22.0508 -72.3016 118° Southeast  Level FlightAware Approximate
11:02AM 21.9954 -72.1907 118° Southeast  Level FlightAware Approximate
11:03AM 21.9386 -72.0807 120° Southeast  Level FlightAware Approximate
11:04AM 21.8804 -71.9715 120° Southeast  Level FlightAware Approximate
11:05AM 21.8228 -71.8621 118° Southeast  Level FlightAware Approximate
11:06AM 21.7674 -71.7513 118° Southeast  Level FlightAware Approximate
11:07AM 21.7120 -71.6406 118° Southeast  Level FlightAware Approximate
11:08AM 21.6545 -71.5313 120° Southeast  Level FlightAware Approximate
11:09AM 21.5959 -71.4213 120° Southeast  Level FlightAware Approximate
11:10AM 21.5357 -71.3124 122° Southeast  Level FlightAware Approximate
11:11AM 21.4741 -71.2045 122° Southeast  Level FlightAware Approximate
11:12AM 21.4041 -71.1040 137° Southeast  Level FlightAware Approximate
11:13AM 21.3179 -71.0177 137° Southeast  Level FlightAware Approximate
11:14AM 21.2317 -70.9315 137° Southeast  Level FlightAware Approximate
11:15AM 21.1449 -70.8461 139° Southeast  Level FlightAware Approximate
11:16AM 21.0564 -70.7627 139° Southeast  Level FlightAware Approximate
11:17AM 20.9679 -70.6794 139° Southeast  Level FlightAware Approximate
11:18AM 20.8794 -70.5961 137° Southeast  Level FlightAware Approximate
11:19AM 20.7934 -70.5100 137° Southeast  Level FlightAware Approximate
11:20AM 20.7073 -70.4239 137° Southeast  Level FlightAware Approximate
11:21AM 20.6213 -70.3379 137° Southeast  Level FlightAware Approximate
11:22AM 20.5353 -70.2519 137° Southeast  Level FlightAware Approximate
11:23AM 20.4493 -70.1659 137° Southeast  Level FlightAware Approximate
11:24AM 20.3633 -70.0800 137° Southeast  Level FlightAware Approximate
11:25AM 20.2757 -69.9959 138° Southeast  Level FlightAware Approximate
11:26AM 20.1878 -69.9124 138° Southeast  Level FlightAware Approximate
11:27AM 20.0999 -69.8289 138° Southeast  Level FlightAware Approximate
11:28AM 20.0120 -69.7453 137° Southeast  Level FlightAware Approximate
11:29AM 19.9330 -69.6664 137° Southeast  Level FlightAware Approximate
11:30AM 19.8470 -69.5808 141° Southeast  Level FlightAware Approximate
11:31AM 19.7553 -69.5022 141° Southeast  Level FlightAware Approximate
11:32AM 19.6707 -69.4153 134° Southeast  Level FlightAware Approximate
11:33AM 19.5882 -69.3260 134° Southeast  Level FlightAware Approximate
11:34AM 19.5018 -69.2414 143° Southeast  Level FlightAware Approximate
11:35AM 19.4115 -69.1614 137° Southeast  Level FlightAware Approximate
11:36AM 19.3259 -69.0757 137° Southeast  Level FlightAware Approximate
11:37AM 19.2402 -68.9900 137° Southeast  Level FlightAware Approximate
11:38AM 19.1545 -68.9044 137° Southeast  Level FlightAware Approximate
11:39AM 19.0688 -68.8188 137° Southeast  Level FlightAware Approximate
11:40AM 18.9808 -68.7360 140° Southeast  Level FlightAware Approximate
11:41AM 18.8911 -68.6553 140° Southeast  Level FlightAware Approximate
11:42AM 18.8044 -68.5710 137° Southeast  Level FlightAware Approximate
11:43AM 18.7188 -68.4855 137° Southeast  Level FlightAware Approximate
11:44AM 18.6271 -68.4079 145° Southeast  Level FlightAware Approximate
11:45AM 18.5674 -68.3634 128° Southeast  Level Estimated
11:46AM 18.5674 -68.3634 128° Southeast  Level Estimated
11:47AM 18.5674 -68.3634 128° Southeast  Level Estimated
11:48AM 18.5674 -68.3634 128° Southeast  Level Estimated
11:49AM 18.5674 -68.3634 128° Southeast  Level Estimated
11:50AM 18.5674 -68.3634 128° Southeast  Level Estimated